Terminal Aerodrome Forecast
Issued by NWS

Home | Current Version | Previous Version | Text Only | Print | Product List | Glossary On
Versions: 1 2 3 4 5 6 7 8 9 10 11 12 13 14
000
FTUS44 KOUN 310522
TAFGAG
TAF
KGAG 310522Z 3106/0106 VRB04KT P6SM SCT100 BKN250
     FM311300 VRB04KT P6SM VCSH BKN050
     FM311800 02008KT P6SM VCTS BKN040CB BKN150
      TEMPO 3119/3123 1SM TSRA BR OVC030CB
     FM312300 04006KT P6SM SCT050 BKN150=

USA.gov is the U.S. government's official web portal to all federal, state and local government web resources and services.